Breedsville, Michigan
Current Conditions -  °F | °C
As of 11:34 AM on Friday 19 Dec 2014 (Local Time) from KLWA Reporting Station
Clear Clear  
Wind Chill: 32°   Ceiling: Unl
Heat Index: 32°   Visibility: 10mi
Dew Point: 21°   Wind: 3mph
Humidity: 64%   Direction: 60°ENE
Pressure: 30.29"   Gusts: NA
Location:  42.35°N, 86.07°W
Report Text: KLWA 191634Z AUTO 06003KT 10SM CLR 00/M06 A3029 RMK AO2 T00001061
Loading
Personal Weather Stations






























Interactive Weather Map New forecast layout! Learn more

10-Day Weather Forecast

Advertisements
Track Severe Weather on mobile